KCXP

Details ICAO KCXP
Name Carson
Region United States
Timezone America/Los_Angeles (UTC-8.0)
Plans Departing 10
Arriving 19
Stats Elevation 4,697 ft / 1,432 m (AMSL)
Location 39.192232° -119.734450°
Runways 1
Magnetic Variation 13.333° E
Sunrise 2017-12-11 15:09:59 UTC / 2017-12-11 07:09:59 Local
Sunset 2017-12-12 00:37:36 UTC / 2017-12-11 16:37:36 Local
Advertisement - Login to hide

Runways

ID Width Length Bearing (true) Bearing (mag) Surface Threshold Offset Overrun Length
09 75 ft / 23 m 5,912 ft / 1,802 m 106.65° 93.32° Asphalt 0 ft / 0 m 0 ft / 0 m
27 75 ft / 23 m 5,912 ft / 1,802 m 286.67° 273.34° Asphalt 0 ft / 0 m 0 ft / 0 m

Map

Weather


0- 5 10 15 20 25 30 35+ Temperature / ° C

Clouds and Precipitation
Forecast for 2017-12-11 12:00 UTC. Updated 37 minutes ago

Ground ~20,000 ft ~40,000 ft Winds

METAR

KCXP 110935Z AUTO 00000KT 10SM CLR M09/M11 A3053 RMK AO2

TAF

KCXP 110521Z 1106/1206 VRB03KT P6SM FEW250 FM112000 08010KT P6SM FEW250 FM120100 VRB03KT P6SM FEW250

Frequencies

Recorded 119.92 MHz AWOS 3
Unicom 123.00 MHz CTAF/UNICOM
Warning: Do not use this data for real-world aviation or navigation. No guarantee of current accuracy is given.